Terminal Aerodrome Forecast
Issued by NWS

Home | Current Version | Previous Version | Text Only | Print | Product List | Glossary On
Versions: 1 2 3 4 5 6 7 8 9 10 11 12 13 14
000
FTAK31 PANC 231740
TAFATK
TAF
PATK 231740Z 2318/2418 01005KT P6SM SCT080
      TEMPO 2320/2324 3SM -SN SCT008 BKN020
     FM240000 VRB03KT 2SM -SN SCT008 OVC020
     FM241500 02003KT P6SM SCT025 OVC050=

USA.gov is the U.S. government's official web portal to all federal, state and local government web resources and services.